Represa, California
Current Conditions -  °F | °C
As of 8:22 AM on Saturday 25 Oct 2014 (Local Time) from KMHR Reporting Station
Overcast Overcast  
Wind Chill: 59°   Ceiling: 1000
Heat Index: 59°   Visibility: 1.5mi
Dew Point: 59°   Wind: 15mph
Humidity: 100%   Direction: 240°WSW
Pressure: 30.01"   Gusts: NA
Location:  38.67°N, 121.15°W
Report Text: KMHR 251522Z 24013KT 1 1/2SM BKN010 OVC035 15/15 A3001 -RA RMK PRESRR
Loading
Personal Weather Stations






























Interactive Weather Map
Tropical Storm Tracking
New forecast layout! Learn more

10-Day Weather Forecast

Advertisements
Track Severe Weather on mobile